CheckWX is a tool to help pilots better visualize weather data.  It is not intended as a substitute for an official pre-flight weather briefing.

03:16:48 UTC

KHDC METAR
Hammond Northshore Regional Airport
Hammond, Louisiana, USA
Current

22 mins ago

KHDC 270255Z AUTO 00000KT 10SM CLR 23/22 A3007 RMK AO2 PWINO
Observed
May-27 @ 02:55 UTC
Visibility
10 SM
Flight Rules
VFR
Cloud Levels
  • Clear skies
Temperature
23°C / 73°F
Dewpoint
22°C / 72°F
Humidity
94%
Altimeter
30.07" Hg
Pressure
1018.32 hPa
Previous

42 mins ago

KHDC 270235Z AUTO 00000KT 10SM CLR 23/22 A3007 RMK AO2 PWINO
Observed
May-27 @ 02:35 UTC
Visibility
10 SM
Flight Rules
VFR
Cloud Levels
  • Clear skies
Temperature
23°C / 73°F
Dewpoint
22°C / 72°F
Humidity
94%
Altimeter
30.07" Hg
Pressure
1018.32 hPa
Previous

1 hour ago

KHDC 270215Z AUTO 00000KT 10SM CLR 24/22 A3006 RMK AO2 PWINO
Observed
May-27 @ 02:15 UTC
Visibility
10 SM
Flight Rules
VFR
Cloud Levels
  • Clear skies
Temperature
24°C / 75°F
Dewpoint
22°C / 72°F
Humidity
89%
Altimeter
30.06" Hg
Pressure
1017.92 hPa